createdAt,value
2023-03-17T00:01:16.628Z,9.77
2023-03-17T00:03:47.758Z,9.83
2023-03-17T00:06:17.795Z,9.84
2023-03-17T00:08:47.252Z,9.84
2023-03-17T00:11:17.170Z,9.92
2023-03-17T00:13:46.069Z,9.89
2023-03-17T00:16:19.994Z,9.83
2023-03-17T00:18:49.350Z,9.87
2023-03-17T00:21:19.687Z,9.83
2023-03-17T00:23:51.637Z,9.90
2023-03-17T00:26:19.627Z,9.88
2023-03-17T00:28:47.160Z,9.94
2023-03-17T00:31:16.886Z,10.00
2023-03-17T00:33:46.577Z,9.98
2023-03-17T00:36:17.921Z,10.00
2023-03-17T00:38:45.934Z,10.03
2023-03-17T00:41:14.044Z,10.08
2023-03-17T00:43:42.787Z,10.08
2023-03-17T00:46:14.569Z,10.05
2023-03-17T00:48:43.333Z,10.07
2023-03-17T00:51:12.233Z,10.08
2023-03-17T00:53:40.419Z,10.18
2023-03-17T00:56:14.291Z,10.19
2023-03-17T00:58:42.330Z,10.11
2023-03-17T01:01:10.708Z,10.11
2023-03-17T01:03:38.705Z,10.38
2023-03-17T01:06:08.826Z,10.41
2023-03-17T01:08:38.604Z,10.47
2023-03-17T01:11:06.635Z,10.61
2023-03-17T01:13:34.302Z,10.56
2023-03-17T01:16:02.587Z,10.50
2023-03-17T01:18:30.300Z,10.53
2023-03-17T01:20:58.059Z,10.56
2023-03-17T01:23:25.926Z,10.72
2023-03-17T01:25:55.051Z,10.76
2023-03-17T01:28:23.152Z,10.82
2023-03-17T01:30:51.049Z,10.85
2023-03-17T01:33:18.996Z,10.76
2023-03-17T01:35:46.655Z,10.71
2023-03-17T01:38:14.858Z,10.61
2023-03-17T01:40:45.885Z,10.53
2023-03-17T01:43:22.413Z,10.48
2023-03-17T01:46:26.003Z,10.49
2023-03-17T01:49:23.523Z,10.42
2023-03-17T01:51:58.612Z,10.47
2023-03-17T01:54:31.528Z,10.39
2023-03-17T01:57:03.712Z,10.42
2023-03-17T01:59:37.600Z,10.42
2023-03-17T02:02:09.007Z,10.42
2023-03-17T02:04:36.844Z,10.38
2023-03-17T02:07:05.057Z,10.33
2023-03-17T02:09:33.973Z,10.32
2023-03-17T02:12:03.719Z,10.41
2023-03-17T02:14:32.548Z,10.34
2023-03-17T02:17:00.062Z,10.24
2023-03-17T02:19:27.606Z,10.21
2023-03-17T02:21:57.897Z,10.13
2023-03-17T02:24:33.142Z,10.30
2023-03-17T02:27:03.605Z,10.43
2023-03-17T02:29:34.013Z,10.36
2023-03-17T02:32:01.855Z,10.38
2023-03-17T02:34:29.383Z,10.46
2023-03-17T02:36:59.145Z,10.42
2023-03-17T02:39:27.395Z,10.50
2023-03-17T02:41:54.916Z,10.42
2023-03-17T02:44:22.521Z,10.47
2023-03-17T02:46:50.166Z,10.45
2023-03-17T02:49:18.743Z,10.37
2023-03-17T02:51:46.268Z,10.44
2023-03-17T02:54:15.310Z,10.54
2023-03-17T02:56:42.791Z,10.50
2023-03-17T02:59:10.445Z,10.49
2023-03-17T03:01:38.740Z,10.53
2023-03-17T03:04:07.097Z,10.48
2023-03-17T03:06:34.641Z,10.52
2023-03-17T03:09:02.130Z,10.66
2023-03-17T03:11:31.031Z,10.55
2023-03-17T03:13:58.510Z,10.56
2023-03-17T03:16:26.189Z,10.49
2023-03-17T03:18:53.736Z,10.43
2023-03-17T03:21:21.982Z,10.26
2023-03-17T03:23:49.530Z,10.36
2023-03-17T03:26:17.215Z,10.42
2023-03-17T03:28:46.151Z,10.48
2023-03-17T03:31:13.803Z,10.46
2023-03-17T03:33:41.478Z,10.48
2023-03-17T03:36:09.984Z,10.43
2023-03-17T03:38:37.764Z,10.39
2023-03-17T03:41:06.245Z,10.31
2023-03-17T03:43:33.849Z,10.32
2023-03-17T03:46:03.059Z,10.38
2023-03-17T03:48:30.726Z,10.35
2023-03-17T03:50:59.506Z,10.22
2023-03-17T03:53:27.511Z,10.19
2023-03-17T03:55:55.900Z,10.15
2023-03-17T03:58:23.919Z,10.17
2023-03-17T04:00:51.488Z,10.12
2023-03-17T04:03:20.557Z,10.01
2023-03-17T04:05:48.045Z,10.12
2023-03-17T04:08:15.791Z,10.17
2023-03-17T04:10:43.419Z,10.07
2023-03-17T04:13:10.886Z,10.22
2023-03-17T04:15:38.424Z,10.18
2023-03-17T04:18:06.220Z,10.23
2023-03-17T04:20:35.348Z,10.31
2023-03-17T04:23:02.828Z,10.34
2023-03-17T04:25:30.794Z,10.30
2023-03-17T04:27:58.784Z,10.36
2023-03-17T04:30:26.473Z,10.37
2023-03-17T04:32:53.993Z,10.35
2023-03-17T04:35:22.632Z,10.34
2023-03-17T04:37:51.844Z,10.33
2023-03-17T04:40:20.108Z,10.31
2023-03-17T04:42:47.713Z,10.26
2023-03-17T04:45:16.595Z,10.31
2023-03-17T04:47:45.891Z,10.28
2023-03-17T04:50:14.124Z,10.25
2023-03-17T04:52:42.025Z,10.23
2023-03-17T04:55:11.796Z,10.23
2023-03-17T04:57:39.268Z,10.21
2023-03-17T05:00:08.353Z,10.18
2023-03-17T05:02:35.900Z,10.12
2023-03-17T05:05:03.395Z,10.12
2023-03-17T05:07:33.870Z,10.08
2023-03-17T05:10:02.034Z,10.12
2023-03-17T05:12:30.899Z,10.14
2023-03-17T05:14:58.501Z,10.21
2023-03-17T05:17:26.001Z,10.14
2023-03-17T05:19:53.448Z,10.15
2023-03-17T05:22:21.026Z,10.18
2023-03-17T05:24:48.611Z,10.09
2023-03-17T05:27:16.395Z,10.14
2023-03-17T05:29:45.210Z,10.12
2023-03-17T05:32:13.538Z,10.05
2023-03-17T05:34:41.032Z,9.99
2023-03-17T05:37:08.649Z,9.97
2023-03-17T05:39:36.306Z,9.81
2023-03-17T05:42:04.072Z,9.83
2023-03-17T05:44:31.744Z,9.88
2023-03-17T05:47:00.835Z,10.03
2023-03-17T05:49:28.693Z,9.99
2023-03-17T05:51:56.795Z,9.94
2023-03-17T05:54:24.325Z,9.94
2023-03-17T05:56:52.275Z,9.82
2023-03-17T05:59:19.753Z,9.87
2023-03-17T06:01:47.316Z,9.97
2023-03-17T06:04:16.115Z,9.99
2023-03-17T06:06:43.655Z,9.91
2023-03-17T06:09:11.124Z,9.94
2023-03-17T06:11:38.900Z,9.95
2023-03-17T06:14:07.214Z,10.02
2023-03-17T06:16:34.742Z,10.00
2023-03-17T06:19:02.436Z,9.99
2023-03-17T06:21:31.358Z,9.97
2023-03-17T06:23:58.827Z,10.00
2023-03-17T06:26:27.097Z,10.00
2023-03-17T06:28:54.829Z,10.09
2023-03-17T06:31:23.823Z,10.04
2023-03-17T06:33:51.461Z,10.08
2023-03-17T06:36:18.923Z,10.13
2023-03-17T06:38:47.748Z,10.24
2023-03-17T06:41:16.082Z,10.25
2023-03-17T06:43:43.549Z,10.27
2023-03-17T06:46:11.115Z,10.24
2023-03-17T06:48:39.168Z,10.28
2023-03-17T06:51:07.053Z,10.21
2023-03-17T06:53:34.675Z,10.28
2023-03-17T06:56:04.927Z,10.36
2023-03-17T06:58:33.094Z,10.48
2023-03-17T07:01:00.604Z,10.54
2023-03-17T07:03:28.570Z,10.69
2023-03-17T07:05:56.061Z,10.59
2023-03-17T07:08:23.560Z,10.69
2023-03-17T07:10:51.531Z,10.83
2023-03-17T07:13:20.847Z,10.82
2023-03-17T07:15:49.284Z,10.94
2023-03-17T07:18:17.072Z,10.88
2023-03-17T07:20:44.788Z,10.98
2023-03-17T07:23:15.595Z,11.05
2023-03-17T07:25:43.630Z,11.01
2023-03-17T07:28:11.322Z,10.97
2023-03-17T07:30:40.227Z,10.93
2023-03-17T07:33:07.770Z,11.08
2023-03-17T07:35:35.480Z,11.07
2023-03-17T07:38:03.076Z,11.13
2023-03-17T07:40:30.693Z,11.22
2023-03-17T07:42:59.439Z,11.36
2023-03-17T07:45:27.841Z,11.34
2023-03-17T07:47:56.736Z,11.38
2023-03-17T07:50:24.278Z,11.36
2023-03-17T07:52:51.758Z,11.43
2023-03-17T07:55:19.415Z,11.45
2023-03-17T07:57:47.071Z,11.50
2023-03-17T08:00:16.241Z,11.61
2023-03-17T08:02:44.446Z,11.69
2023-03-17T08:05:16.147Z,11.77
2023-03-17T08:07:43.723Z,11.76
2023-03-17T08:10:13.767Z,11.91
2023-03-17T08:12:41.624Z,11.93
2023-03-17T08:15:10.210Z,11.97
2023-03-17T08:17:37.809Z,12.04
2023-03-17T08:20:05.960Z,12.00
2023-03-17T08:22:34.915Z,11.90
2023-03-17T08:25:02.548Z,12.01
2023-03-17T08:27:31.957Z,11.89
2023-03-17T08:30:01.052Z,12.02
2023-03-17T08:32:28.591Z,12.12
2023-03-17T08:34:56.176Z,12.19
2023-03-17T08:37:24.604Z,12.21
2023-03-17T08:39:53.461Z,12.32
2023-03-17T08:42:21.489Z,12.31
2023-03-17T08:44:48.991Z,12.32
2023-03-17T08:47:16.525Z,12.41
2023-03-17T08:49:44.031Z,12.35
2023-03-17T08:52:11.569Z,12.42
2023-03-17T08:54:39.104Z,12.49
2023-03-17T08:57:07.953Z,12.45
2023-03-17T08:59:35.508Z,12.54
2023-03-17T09:02:02.941Z,12.46
2023-03-17T09:04:30.448Z,12.48
2023-03-17T09:07:03.784Z,12.49
2023-03-17T09:09:32.074Z,12.62
2023-03-17T09:11:59.562Z,12.62
2023-03-17T09:14:29.548Z,12.67
2023-03-17T09:16:57.192Z,12.70
2023-03-17T09:19:25.023Z,12.71
2023-03-17T09:21:52.802Z,12.86
2023-03-17T09:24:21.200Z,12.93
2023-03-17T09:26:48.596Z,13.02
2023-03-17T09:29:16.373Z,13.13
2023-03-17T09:31:45.159Z,13.34
2023-03-17T09:34:12.654Z,13.41
2023-03-17T09:36:40.112Z,13.41
2023-03-17T09:39:07.533Z,13.52
2023-03-17T09:42:00.435Z,13.59
2023-03-17T09:44:47.616Z,13.65
2023-03-17T09:47:36.491Z,13.79
2023-03-17T09:50:10.572Z,14.02
2023-03-17T09:52:38.796Z,13.98
2023-03-17T09:55:09.253Z,14.13
2023-03-17T09:57:38.789Z,14.18
2023-03-17T10:00:14.721Z,14.19
2023-03-17T10:02:44.076Z,14.11
2023-03-17T10:05:20.490Z,14.15
2023-03-17T10:07:56.609Z,14.19
2023-03-17T10:10:30.896Z,14.21
2023-03-17T10:13:09.374Z,14.21
2023-03-17T10:15:42.909Z,14.37
2023-03-17T10:18:14.239Z,14.50
2023-03-17T10:20:51.546Z,14.63
2023-03-17T10:23:24.701Z,14.70
2023-03-17T10:25:53.060Z,14.69
2023-03-17T10:28:27.342Z,14.63
2023-03-17T10:30:55.201Z,14.67
2023-03-17T10:33:24.033Z,14.81
2023-03-17T10:35:51.602Z,14.84
2023-03-17T10:38:21.911Z,15.02
2023-03-17T10:40:58.034Z,14.98
2023-03-17T10:43:30.885Z,15.03
2023-03-17T10:46:03.543Z,15.25
2023-03-17T10:48:36.989Z,15.42
2023-03-17T10:51:09.000Z,15.50
2023-03-17T10:53:43.230Z,15.59
2023-03-17T10:56:20.224Z,15.35
2023-03-17T10:58:49.808Z,15.32
2023-03-17T11:01:21.793Z,15.51
2023-03-17T11:03:51.491Z,15.71
2023-03-17T11:06:20.573Z,15.71
2023-03-17T11:08:50.290Z,15.72
2023-03-17T11:11:27.042Z,15.86
2023-03-17T11:14:03.000Z,16.06
2023-03-17T11:16:33.070Z,16.25
2023-03-17T11:19:03.437Z,16.48
2023-03-17T11:21:32.502Z,16.65
2023-03-17T11:24:08.129Z,16.74
2023-03-17T11:26:54.207Z,16.85
2023-03-17T11:29:27.589Z,16.92
2023-03-17T11:32:02.377Z,16.99
2023-03-17T11:34:44.558Z,17.08
2023-03-17T11:37:22.118Z,17.06
2023-03-17T11:39:58.756Z,17.17
2023-03-17T11:42:32.215Z,17.22
2023-03-17T11:45:22.565Z,17.33
2023-03-17T11:48:15.080Z,17.43
2023-03-17T11:50:53.127Z,17.63
2023-03-17T11:53:51.302Z,17.62
2023-03-17T11:56:21.786Z,17.58
2023-03-17T11:58:54.893Z,17.58
2023-03-17T12:01:27.951Z,17.41
2023-03-17T12:04:09.810Z,17.55
2023-03-17T12:06:44.448Z,17.60
2023-03-17T12:09:22.085Z,17.38
2023-03-17T12:11:51.777Z,17.35
2023-03-17T12:14:27.954Z,17.39
2023-03-17T12:17:04.701Z,17.40
2023-03-17T12:19:40.472Z,17.43
2023-03-17T12:22:19.184Z,17.49
2023-03-17T12:24:54.534Z,17.55
2023-03-17T12:27:25.900Z,17.51
2023-03-17T12:29:58.096Z,17.38
2023-03-17T12:32:29.579Z,17.30
2023-03-17T12:34:59.577Z,17.35
2023-03-17T12:37:30.018Z,17.37
2023-03-17T12:40:06.684Z,17.44
2023-03-17T12:42:42.428Z,17.31
2023-03-17T12:45:42.058Z,17.37
2023-03-17T12:48:26.364Z,17.54
2023-03-17T12:51:22.290Z,17.51
2023-03-17T12:53:51.782Z,17.59
2023-03-17T12:56:24.729Z,17.69
2023-03-17T12:58:53.889Z,17.68
2023-03-17T13:01:29.829Z,17.66
2023-03-17T13:04:02.966Z,17.75
2023-03-17T13:06:32.133Z,17.77
2023-03-17T13:09:39.480Z,17.74
2023-03-17T13:12:57.081Z,17.88
2023-03-17T13:15:30.654Z,17.93
2023-03-17T13:18:24.698Z,17.84
2023-03-17T13:21:10.248Z,17.80
2023-03-17T13:23:42.034Z,17.91
2023-03-17T13:26:13.261Z,17.86
2023-03-17T13:28:50.089Z,17.64
2023-03-17T13:31:34.498Z,17.70
2023-03-17T13:34:15.087Z,17.83
2023-03-17T13:36:55.548Z,17.81
2023-03-17T13:39:48.612Z,18.00
2023-03-17T13:42:29.335Z,17.77
2023-03-17T13:45:16.568Z,17.81
2023-03-17T13:47:45.746Z,17.83
2023-03-17T13:50:16.817Z,18.02
2023-03-17T13:52:49.330Z,17.99
2023-03-17T13:55:35.860Z,18.00
2023-03-17T13:58:34.175Z,18.14
2023-03-17T14:01:07.543Z,18.04
2023-03-17T14:03:41.659Z,18.16
2023-03-17T14:06:11.902Z,18.26
2023-03-17T14:08:46.009Z,18.30
2023-03-17T14:11:23.972Z,18.38
2023-03-17T14:14:08.910Z,18.40
2023-03-17T14:16:43.503Z,18.42
2023-03-17T14:19:18.151Z,18.36
2023-03-17T14:21:45.638Z,18.37
2023-03-17T14:24:20.665Z,18.33
2023-03-17T14:26:48.760Z,18.35
2023-03-17T14:29:18.515Z,18.26
2023-03-17T14:31:52.799Z,18.15
2023-03-17T14:34:22.937Z,18.16
2023-03-17T14:36:52.477Z,18.15
2023-03-17T14:39:25.721Z,18.07
2023-03-17T14:42:01.560Z,18.01
2023-03-17T14:44:36.090Z,18.05
2023-03-17T14:47:08.476Z,17.98
2023-03-17T14:49:37.232Z,17.88
2023-03-17T14:52:05.087Z,17.69
2023-03-17T14:54:35.783Z,17.61
2023-03-17T14:57:06.979Z,17.71
2023-03-17T14:59:36.246Z,17.75
2023-03-17T15:02:19.092Z,17.70
2023-03-17T15:04:54.446Z,17.48
2023-03-17T15:07:36.842Z,17.53
2023-03-17T15:10:07.279Z,17.65
2023-03-17T15:12:34.797Z,17.73
2023-03-17T15:15:05.404Z,17.73
2023-03-17T15:17:37.037Z,17.54
2023-03-17T15:20:07.714Z,17.54
2023-03-17T15:22:43.231Z,17.52
2023-03-17T15:25:20.933Z,17.67
2023-03-17T15:27:48.902Z,17.68
2023-03-17T15:30:17.877Z,17.72
2023-03-17T15:32:52.828Z,17.46
2023-03-17T15:35:20.243Z,17.28
2023-03-17T15:37:48.516Z,17.31
2023-03-17T15:40:16.563Z,17.26
2023-03-17T15:42:45.288Z,17.20
2023-03-17T15:45:16.212Z,17.15
2023-03-17T15:47:47.277Z,16.97
2023-03-17T15:50:17.815Z,16.88
2023-03-17T15:52:45.837Z,16.75
2023-03-17T15:55:19.129Z,16.79
2023-03-17T15:57:54.723Z,16.69
2023-03-17T16:00:25.233Z,16.64
2023-03-17T16:02:56.148Z,16.51
2023-03-17T16:05:26.489Z,16.58
2023-03-17T16:07:54.717Z,16.58
2023-03-17T16:10:25.219Z,16.69
2023-03-17T16:12:53.017Z,16.54
2023-03-17T16:15:23.611Z,16.40
2023-03-17T16:17:55.683Z,16.40
2023-03-17T16:20:25.980Z,16.27
2023-03-17T16:22:54.822Z,16.27
2023-03-17T16:25:25.901Z,16.28
2023-03-17T16:27:55.088Z,16.13
2023-03-17T16:30:24.774Z,16.04
2023-03-17T16:32:54.094Z,16.04
2023-03-17T16:35:23.624Z,15.87
2023-03-17T16:37:54.087Z,15.87
2023-03-17T16:40:24.930Z,15.78
2023-03-17T16:42:53.213Z,15.71
2023-03-17T16:45:26.966Z,15.57
2023-03-17T16:47:57.511Z,15.58
2023-03-17T16:50:27.906Z,15.62
2023-03-17T16:52:55.466Z,15.75
2023-03-17T16:55:24.072Z,15.70
2023-03-17T16:57:54.262Z,15.58
2023-03-17T17:00:25.016Z,15.53
2023-03-17T17:02:53.827Z,15.57
2023-03-17T17:05:24.895Z,15.43
2023-03-17T17:07:56.060Z,15.31
2023-03-17T17:10:25.560Z,15.35
2023-03-17T17:12:53.513Z,15.19
2023-03-17T17:15:22.627Z,15.13
2023-03-17T17:17:52.702Z,15.15
2023-03-17T17:20:24.772Z,15.07
2023-03-17T17:22:52.735Z,14.95
2023-03-17T17:25:20.233Z,14.97
2023-03-17T17:27:48.470Z,15.03
2023-03-17T17:30:17.964Z,15.02
2023-03-17T17:32:45.707Z,14.96
2023-03-17T17:35:13.740Z,14.91
2023-03-17T17:37:43.150Z,14.95
2023-03-17T17:40:14.189Z,14.97
2023-03-17T17:42:41.701Z,14.97
2023-03-17T17:45:10.172Z,14.91
2023-03-17T17:47:37.798Z,14.90
2023-03-17T17:50:07.002Z,14.88
2023-03-17T17:52:34.879Z,14.83
2023-03-17T17:55:03.794Z,14.99
2023-03-17T17:57:31.274Z,14.83
2023-03-17T17:59:58.691Z,14.77
2023-03-17T18:02:26.206Z,14.80
2023-03-17T18:04:53.708Z,14.75
2023-03-17T18:07:21.238Z,14.70
2023-03-17T18:09:48.720Z,14.67
2023-03-17T18:12:17.534Z,14.58
2023-03-17T18:14:44.978Z,14.50
2023-03-17T18:17:12.831Z,14.56
2023-03-17T18:19:40.329Z,14.64
2023-03-17T18:22:08.304Z,14.64
2023-03-17T18:24:36.080Z,14.57
2023-03-17T18:27:04.520Z,14.61
2023-03-17T18:29:33.314Z,14.59
2023-03-17T18:32:00.932Z,14.57
2023-03-17T18:34:32.695Z,14.40
2023-03-17T18:37:01.806Z,14.42
2023-03-17T18:39:29.736Z,14.39
2023-03-17T18:41:57.428Z,14.37
2023-03-17T18:44:25.219Z,14.38
2023-03-17T18:46:53.987Z,14.39
2023-03-17T18:49:23.933Z,14.34
2023-03-17T18:51:51.478Z,14.31
2023-03-17T18:54:18.922Z,14.43
2023-03-17T18:56:46.353Z,14.33
2023-03-17T18:59:13.943Z,14.51
2023-03-17T19:01:41.644Z,14.51
2023-03-17T19:04:10.468Z,14.46
2023-03-17T19:06:39.515Z,14.47
2023-03-17T19:09:09.004Z,14.45
2023-03-17T19:11:38.724Z,14.49
2023-03-17T19:14:06.466Z,14.38
2023-03-17T19:16:34.444Z,14.34
2023-03-17T19:19:02.591Z,14.29
2023-03-17T19:21:32.402Z,14.25
2023-03-17T19:24:01.757Z,14.28
2023-03-17T19:26:30.326Z,14.38
2023-03-17T19:28:58.276Z,14.36
2023-03-17T19:31:25.981Z,14.39
2023-03-17T19:33:55.296Z,14.18
2023-03-17T19:36:22.791Z,14.14
2023-03-17T19:38:51.784Z,14.28
2023-03-17T19:41:19.259Z,14.12
2023-03-17T19:43:46.731Z,14.12
2023-03-17T19:46:14.364Z,14.22
2023-03-17T19:48:42.040Z,14.15
2023-03-17T19:51:09.764Z,14.13
2023-03-17T19:53:38.132Z,14.14
2023-03-17T19:56:07.795Z,14.13
2023-03-17T19:58:35.755Z,14.03
2023-03-17T20:01:04.256Z,14.11
2023-03-17T20:03:32.066Z,13.94
2023-03-17T20:06:00.969Z,13.95
2023-03-17T20:08:28.504Z,13.89
2023-03-17T20:10:56.019Z,13.94
2023-03-17T20:13:24.944Z,13.97
2023-03-17T20:15:52.779Z,14.01
2023-03-17T20:18:20.513Z,14.10
2023-03-17T20:20:52.311Z,14.16
2023-03-17T20:23:20.226Z,14.02
2023-03-17T20:25:49.291Z,13.90
2023-03-17T20:28:17.831Z,13.95
2023-03-17T20:30:47.849Z,13.91
2023-03-17T20:33:15.559Z,13.85
2023-03-17T20:35:45.983Z,13.78
2023-03-17T20:38:14.421Z,13.73
2023-03-17T20:40:42.704Z,13.78
2023-03-17T20:43:10.663Z,13.84
2023-03-17T20:45:38.364Z,13.93
2023-03-17T20:48:10.513Z,13.79
2023-03-17T20:50:38.149Z,13.72
2023-03-17T20:53:05.739Z,13.92
2023-03-17T20:55:33.210Z,13.84
2023-03-17T20:58:01.859Z,13.78
2023-03-17T21:00:31.850Z,13.79
2023-03-17T21:03:00.245Z,13.78
2023-03-17T21:05:29.414Z,13.75
2023-03-17T21:07:57.640Z,13.82
2023-03-17T21:10:25.328Z,13.84
2023-03-17T21:12:52.779Z,13.90
2023-03-17T21:15:22.728Z,13.93
2023-03-17T21:17:50.893Z,13.95
2023-03-17T21:20:19.376Z,13.85
2023-03-17T21:22:48.165Z,13.79
2023-03-17T21:25:15.672Z,13.69
2023-03-17T21:27:43.952Z,13.66
2023-03-17T21:30:14.308Z,13.72
2023-03-17T21:32:42.598Z,13.64
2023-03-17T21:35:10.480Z,13.56
2023-03-17T21:37:38.034Z,13.62
2023-03-17T21:40:08.063Z,13.41
2023-03-17T21:42:35.858Z,13.47
2023-03-17T21:45:03.380Z,13.56
2023-03-17T21:47:31.010Z,13.51
2023-03-17T21:49:58.807Z,13.58
2023-03-17T21:52:26.966Z,13.51
2023-03-17T21:54:54.625Z,13.41
2023-03-17T21:57:23.785Z,13.39
2023-03-17T21:59:51.222Z,13.32
2023-03-17T22:02:18.712Z,13.28
2023-03-17T22:04:47.003Z,13.28
2023-03-17T22:07:14.846Z,13.30
2023-03-17T22:09:42.414Z,13.28
2023-03-17T22:12:10.198Z,13.14
2023-03-17T22:14:39.215Z,13.26
2023-03-17T22:17:06.728Z,13.36
2023-03-17T22:19:34.245Z,13.35
2023-03-17T22:22:03.647Z,13.35
2023-03-17T22:24:32.306Z,13.29
2023-03-17T22:26:59.808Z,13.31
2023-03-17T22:29:27.280Z,13.33
2023-03-17T22:31:56.107Z,13.35
2023-03-17T22:34:24.047Z,13.37
2023-03-17T22:36:51.691Z,13.41
2023-03-17T22:39:19.275Z,13.33
2023-03-17T22:41:46.919Z,13.35
2023-03-17T22:44:14.464Z,13.44
2023-03-17T22:46:42.245Z,13.44
2023-03-17T22:49:11.239Z,13.51
2023-03-17T22:51:41.095Z,13.51
2023-03-17T22:54:11.164Z,13.42
2023-03-17T22:56:38.962Z,13.26
2023-03-17T22:59:06.632Z,13.26
2023-03-17T23:01:34.251Z,13.19
2023-03-17T23:04:02.148Z,13.22
2023-03-17T23:06:31.167Z,13.22
2023-03-17T23:08:58.785Z,13.34
2023-03-17T23:11:27.903Z,13.25
2023-03-17T23:13:55.879Z,13.10
2023-03-17T23:16:23.626Z,13.07
2023-03-17T23:18:51.688Z,13.02
2023-03-17T23:21:22.919Z,13.00
2023-03-17T23:23:51.760Z,13.03
2023-03-17T23:26:19.258Z,12.96
2023-03-17T23:28:47.494Z,13.14
2023-03-17T23:31:15.783Z,13.00
2023-03-17T23:33:43.634Z,12.99
2023-03-17T23:36:13.883Z,13.05
2023-03-17T23:38:41.826Z,13.17
2023-03-17T23:41:11.095Z,13.10
2023-03-17T23:43:39.076Z,13.07
2023-03-17T23:46:06.929Z,13.07
2023-03-17T23:48:34.515Z,13.13
2023-03-17T23:51:02.942Z,13.23
2023-03-17T23:53:30.410Z,13.09
2023-03-17T23:55:59.136Z,13.14
2023-03-17T23:58:28.392Z,13.08
